Huvudsida
METAR-TAF:

METAR-TAF

Flygplatser :

Djibouti, Djibouti

latitud: 11-33N, longitud: 043-10E, höjd: 49 m

Aktuellt väderrapport

Denna rapport gjordes för 1 timme och 0 minuter sedan, klockan 03:00 UTC
Temperatur 29°C
Fuktighet 74%
Tryck 1010 hPa
Sikt 10 km eller mer
Få moln på en höjd av 2300 ft

METAR: HDAM 230300Z 250/03KT 9999 FEW023 29/24 Q1010

Tid: 07:00 (04:00 UTC)

Väderprognos

Denna rapport gjordes för 5 timmar och 0 minuter sedan, klockan 23:00 UTC
Prognos gäller från 23 kl. 00 UTC till 23 kl. 24 UTC
Vind 4 kt från väst/sydväst
Sikt 10 km eller mer
Få moln på en höjd av 2000 ft
Blir
från 23 kl. 06 UTC till 23 kl. 12 UTC
Vind 12 kt från ost
Spridda moln på en höjd av 2300 ft
Blir
från 23 kl. 18 UTC till 23 kl. 21 UTC
Vind 6 kt från syd/sydost
Spridda moln på en höjd av 2000 ft

TAF: HDAM 222300Z 2300/2324 25004KT 9999 FEW020 BECMG 2306/2312 08012KT SCT023 BECMG 2318/2321 16006KT SCT020

Aktuella väderrapporter och prognoser från 4000 flygplatser (METAR- och TAF-rapporter).

De tillgängliga stationerna syns som gula och röda prickar på kartan.

För musen över prickarna för att se namnen på stationerna.

Klicka sedan för att få väderrapporter och prognoser.

För att ändra kartan: Klicka på de gröna knapparna med ett svart kors på för att zooma in; den gröna knappen med ett streck på för att zooma ut; eller på de gröna pilarna för angränsande kartor.


METAR-TAF: